Time;durP1;ratioP1;P1;durP2;ratioP2;P2;SDS_P1;SDS_P2;PMS_P1;PMS_P2;Temp;Humidity;BMP_temperature;BMP_pressure;BME280_temperature;BME280_humidity;BME280_pressure;Samples;Min_cycle;Max_cycle;Signal;HPM_P1;HPM_P2
2023/03/14 00:00:13;;;;;;;7.15;2.00;;;13.20;99.90;;;;;;4999110;28;20305;-75
2023/03/14 00:02:40;;;;;;;7.72;1.58;;;13.20;99.90;;;;;;5016511;28;20042;-75
2023/03/14 00:05:06;;;;;;;12.90;1.80;;;13.20;99.90;;;;;;5016567;28;20117;-75
2023/03/14 00:07:36;;;;;;;5.25;1.05;;;13.20;99.90;;;;;;5036222;28;20099;-75
2023/03/14 00:10:04;;;;;;;7.78;1.77;;;13.20;99.90;;;;;;5001680;28;20527;-75
2023/03/14 00:12:31;;;;;;;7.63;1.52;;;13.20;99.90;;;;;;5017723;28;20033;-75
2023/03/14 00:14:57;;;;;;;7.95;1.88;;;13.20;99.90;;;;;;5017750;28;20120;-75
2023/03/14 00:17:22;;;;;;;9.23;1.38;;;13.20;99.90;;;;;;5035763;28;20484;-74
2023/03/14 00:19:52;;;;;;;7.05;1.30;;;13.10;99.90;;;;;;5001677;28;20059;-75
2023/03/14 00:22:17;;;;;;;7.85;1.77;;;13.10;99.90;;;;;;5017728;28;20098;-75
2023/03/14 00:24:43;;;;;;;7.20;1.60;;;13.10;99.90;;;;;;5018042;28;20116;-74
2023/03/14 00:27:09;;;;;;;10.57;1.63;;;13.00;99.90;;;;;;5035361;28;20037;-75
2023/03/14 00:29:34;;;;;;;8.55;1.92;;;12.90;99.90;;;;;;5018033;28;20425;-75
2023/03/14 00:32:00;;;;;;;6.45;1.13;;;12.80;99.90;;;;;;5001397;28;20033;-75
2023/03/14 00:34:29;;;;;;;9.48;1.20;;;12.70;99.90;;;;;;5002258;28;20056;-75
2023/03/14 00:36:54;;;;;;;9.43;0.90;;;12.70;99.90;;;;;;5035088;28;20061;-75
2023/03/14 00:39:20;;;;;;;5.30;0.80;;;12.60;99.90;;;;;;5017677;28;20030;-75
2023/03/14 00:41:46;;;;;;;7.13;1.00;;;12.50;99.90;;;;;;5017831;28;20034;-75
2023/03/14 00:44:11;;;;;;;5.47;0.82;;;12.50;99.90;;;;;;5001162;28;20427;-74
2023/03/14 00:46:37;;;;;;;7.68;1.25;;;12.40;99.90;;;;;;5017554;28;20497;-74
2023/03/14 00:49:03;;;;;;;4.93;0.60;;;12.40;99.90;;;;;;5017598;28;20029;-74
2023/03/14 00:51:28;;;;;;;7.47;0.60;;;12.30;99.90;;;;;;5001366;28;20124;-74
2023/03/14 00:53:54;;;;;;;3.63;0.60;;;12.30;99.90;;;;;;5017692;28;20511;-74
2023/03/14 00:56:20;;;;;;;3.25;0.50;;;12.30;99.90;;;;;;5035102;28;20482;-74
2023/03/14 00:58:45;;;;;;;6.18;0.63;;;12.20;99.90;;;;;;5017251;28;20057;-74
2023/03/14 01:01:18;;;;;;;4.95;0.60;;;12.20;99.90;;;;;;5017116;28;20053;-74
2023/03/14 01:03:44;;;;;;;4.63;1.05;;;12.20;99.90;;;;;;5035047;28;20082;-74
2023/03/14 01:06:11;;;;;;;3.95;0.35;;;12.20;99.90;;;;;;5016701;28;20053;-74
2023/03/14 01:08:37;;;;;;;5.22;0.88;;;12.20;99.90;;;;;;5016957;28;20041;-75
2023/03/14 01:11:08;;;;;;;6.45;0.77;;;12.20;99.90;;;;;;5000484;28;20029;-74
2023/03/14 01:13:33;;;;;;;9.85;1.02;;;12.20;99.90;;;;;;5000414;28;20032;-74
2023/03/14 01:16:07;;;;;;;6.47;0.90;;;12.20;99.90;;;;;;5034549;28;20033;-74
2023/03/14 01:18:37;;;;;;;4.38;0.68;;;12.10;99.90;;;;;;5017252;28;20062;-74
2023/03/14 01:21:08;;;;;;;8.00;0.70;;;12.10;99.90;;;;;;5000712;28;20038;-74
2023/03/14 01:23:34;;;;;;;7.72;1.58;;;12.10;99.90;;;;;;5034829;28;20490;-75
2023/03/14 01:26:00;;;;;;;7.00;0.75;;;12.10;99.90;;;;;;5016895;28;20108;-75
2023/03/14 01:28:26;;;;;;;6.28;1.05;;;12.10;99.90;;;;;;5016427;28;20533;-74
2023/03/14 01:30:52;;;;;;;8.90;0.93;;;12.10;99.90;;;;;;5016493;28;20071;-75
2023/03/14 01:33:17;;;;;;;9.02;1.00;;;12.10;99.90;;;;;;4983469;28;20424;-74
2023/03/14 01:35:43;;;;;;;7.07;0.65;;;12.00;99.90;;;;;;5000204;28;20087;-74
2023/03/14 01:38:08;;;;;;;12.30;1.42;;;12.00;99.90;;;;;;5034047;28;20069;-74
2023/03/14 01:40:42;;;;;;;7.85;1.10;;;12.00;99.90;;;;;;5000665;28;20357;-74
2023/03/14 01:43:20;;;;;;;5.55;0.60;;;12.00;99.90;;;;;;5034348;28;20025;-74
2023/03/14 01:46:04;;;;;;;9.93;1.08;;;12.10;99.90;;;;;;5033997;28;20026;-73
2023/03/14 01:48:38;;;;;;;7.80;0.85;;;12.00;99.90;;;;;;5033919;28;20069;-73
2023/03/14 01:51:06;;;;;;;10.10;0.93;;;12.10;99.90;;;;;;5016386;28;20029;-73
2023/03/14 01:53:33;;;;;;;7.50;0.73;;;12.10;99.90;;;;;;5016134;28;20021;-73
2023/03/14 01:55:59;;;;;;;7.15;1.05;;;12.00;99.90;;;;;;4983356;28;20029;-74
2023/03/14 01:58:28;;;;;;;8.07;0.90;;;11.90;99.90;;;;;;4999686;28;20044;-74
2023/03/14 02:00:56;;;;;;;8.93;1.08;;;11.90;99.90;;;;;;4999478;28;20037;-74
2023/03/14 02:03:24;;;;;;;11.68;1.27;;;11.80;99.90;;;;;;5015915;28;20083;-73
2023/03/14 02:05:51;;;;;;;10.05;1.05;;;11.70;99.90;;;;;;5015905;28;20053;-73
2023/03/14 02:08:21;;;;;;;9.77;1.17;;;11.60;99.90;;;;;;5033518;28;20029;-74
2023/03/14 02:10:49;;;;;;;6.15;1.05;;;11.50;99.90;;;;;;5033589;28;20127;-74
2023/03/14 02:13:17;;;;;;;8.93;1.38;;;11.50;99.90;;;;;;5033750;28;20030;-73
2023/03/14 02:15:42;;;;;;;8.25;1.20;;;11.40;99.90;;;;;;5033226;28;20025;-73
2023/03/14 02:18:10;;;;;;;9.20;1.10;;;11.30;99.90;;;;;;4999577;28;20079;-73
2023/03/14 02:21:20;;;;;;;11.55;1.85;;;11.20;99.90;;;;;;5032802;28;20028;-73
2023/03/14 02:24:03;;;;;;;8.32;0.80;;;10.90;99.90;;;;;;5033181;28;20091;-73
2023/03/14 02:26:40;;;;;;;8.13;1.30;;;10.80;99.90;;;;;;5033402;28;20025;-73
2023/03/14 02:29:06;;;;;;;7.68;1.02;;;10.80;99.90;;;;;;5015081;28;20040;-74
2023/03/14 02:31:32;;;;;;;12.02;2.08;;;10.80;99.90;;;;;;4998734;28;20033;-73
2023/03/14 02:33:59;;;;;;;10.15;1.50;;;10.80;99.90;;;;;;5015247;28;20029;-73
2023/03/14 02:36:25;;;;;;;9.68;1.35;;;10.80;99.90;;;;;;5031984;28;20026;-74
2023/03/14 02:39:10;;;;;;;8.63;1.40;;;10.80;99.90;;;;;;5033398;28;20115;-74
2023/03/14 02:41:35;;;;;;;8.80;1.40;;;10.80;99.90;;;;;;5015286;28;20040;-74
2023/03/14 02:44:01;;;;;;;11.13;1.70;;;10.80;99.90;;;;;;5015053;28;20038;-73
2023/03/14 02:46:27;;;;;;;9.30;1.20;;;10.80;99.90;;;;;;4999295;28;20132;-74
2023/03/14 02:48:58;;;;;;;7.68;1.10;;;10.80;99.90;;;;;;5014853;28;20474;-74
2023/03/14 02:51:26;;;;;;;10.30;0.85;;;10.80;99.90;;;;;;5032575;28;20044;-73
2023/03/14 02:53:52;;;;;;;8.90;0.68;;;10.80;99.90;;;;;;5032721;28;20026;-73
2023/03/14 02:56:17;;;;;;;9.02;0.90;;;10.90;99.90;;;;;;5014858;28;20079;-74
2023/03/14 02:58:43;;;;;;;14.80;1.30;;;10.90;99.90;;;;;;4998467;28;20030;-74
2023/03/14 03:01:09;;;;;;;14.35;1.10;;;10.90;99.90;;;;;;4998401;28;20041;-74
2023/03/14 03:03:34;;;;;;;9.43;0.80;;;11.00;99.90;;;;;;4983099;28;20444;-74
2023/03/14 03:06:00;;;;;;;8.98;1.17;;;11.00;99.90;;;;;;5014653;28;20088;-74
2023/03/14 03:08:28;;;;;;;9.60;0.73;;;11.00;99.90;;;;;;5032527;28;20032;-74
2023/03/14 03:10:54;;;;;;;8.30;1.00;;;11.00;99.90;;;;;;4998764;28;20037;-75
2023/03/14 03:13:20;;;;;;;8.60;1.42;;;11.00;99.90;;;;;;5032410;28;20044;-75
2023/03/14 03:15:46;;;;;;;5.78;0.82;;;11.00;99.90;;;;;;5032360;28;20375;-75
2023/03/14 03:18:12;;;;;;;6.47;0.75;;;11.00;99.90;;;;;;5015049;28;20029;-75
2023/03/14 03:20:38;;;;;;;9.80;1.88;;;11.00;99.90;;;;;;4998560;28;20137;-75
2023/03/14 03:23:04;;;;;;;7.05;0.90;;;11.00;99.90;;;;;;5032474;28;20429;-75
2023/03/14 03:25:30;;;;;;;7.85;0.90;;;11.00;99.90;;;;;;4998226;28;20053;-74
2023/03/14 03:27:56;;;;;;;7.65;1.15;;;11.00;99.90;;;;;;4998597;28;20056;-75
2023/03/14 03:30:22;;;;;;;8.93;0.95;;;11.00;99.90;;;;;;4982022;28;20422;-75
2023/03/14 03:32:47;;;;;;;7.75;1.00;;;11.00;99.90;;;;;;5014528;28;20041;-75
2023/03/14 03:35:13;;;;;;;17.45;1.60;;;11.00;99.90;;;;;;5014627;28;20034;-76
2023/03/14 03:37:39;;;;;;;5.15;0.82;;;11.00;99.90;;;;;;5015116;28;20482;-76
2023/03/14 03:40:06;;;;;;;10.45;0.90;;;11.00;99.90;;;;;;5014455;28;20076;-75
2023/03/14 03:42:33;;;;;;;10.60;1.00;;;11.00;99.90;;;;;;5032146;28;20084;-73
2023/03/14 03:45:00;;;;;;;10.98;1.42;;;10.90;99.90;;;;;;5014559;28;20120;-76
2023/03/14 03:47:26;;;;;;;11.43;2.03;;;10.90;99.90;;;;;;5015422;28;20033;-73
2023/03/14 03:49:51;;;;;;;6.85;1.08;;;10.90;99.90;;;;;;5001817;28;20033;-76
2023/03/14 03:52:17;;;;;;;10.70;1.10;;;11.00;99.90;;;;;;5018034;28;20037;-74
2023/03/14 03:54:43;;;;;;;9.30;1.48;;;10.90;99.90;;;;;;5017801;28;20033;-74
2023/03/14 03:57:09;;;;;;;17.70;1.80;;;11.00;99.90;;;;;;5001880;28;20037;-74
2023/03/14 03:59:34;;;;;;;12.13;1.90;;;11.00;99.90;;;;;;4985127;28;20563;-74
2023/03/14 04:02:00;;;;;;;11.55;1.90;;;11.00;99.90;;;;;;5001328;28;20492;-74
2023/03/14 04:04:26;;;;;;;8.15;1.17;;;11.00;99.90;;;;;;5001521;28;20048;-84
2023/03/14 04:06:52;;;;;;;14.18;1.75;;;11.00;99.90;;;;;;5002464;28;20058;-85
2023/03/14 04:09:17;;;;;;;11.77;1.42;;;11.00;99.90;;;;;;5018512;28;20030;-84
2023/03/14 04:11:43;;;;;;;12.10;1.58;;;11.10;99.90;;;;;;4986650;28;20068;-84
2023/03/14 04:14:09;;;;;;;14.95;2.35;;;11.10;99.90;;;;;;5018501;28;20441;-84
2023/03/14 04:16:35;;;;;;;8.90;1.35;;;11.10;99.90;;;;;;5018722;28;20057;-84
2023/03/14 04:19:01;;;;;;;11.25;1.42;;;11.10;99.90;;;;;;4986098;28;20029;-85
2023/03/14 04:21:27;;;;;;;9.80;1.38;;;11.10;99.90;;;;;;5002226;28;20061;-84
2023/03/14 04:23:52;;;;;;;8.35;1.10;;;11.00;99.90;;;;;;5002352;28;20034;-85
2023/03/14 04:26:18;;;;;;;12.65;2.75;;;11.00;99.90;;;;;;5002806;28;20025;-85
2023/03/14 04:28:44;;;;;;;11.98;1.30;;;11.00;99.90;;;;;;4985755;28;20524;-84
2023/03/14 04:31:16;;;;;;;13.27;1.60;;;11.10;99.90;;;;;;5018555;28;20048;-85
2023/03/14 04:33:42;;;;;;;11.52;1.48;;;11.10;99.90;;;;;;5037057;28;20037;-84
2023/03/14 04:36:08;;;;;;;11.57;1.60;;;11.20;99.90;;;;;;5003265;28;20034;-84
2023/03/14 04:38:34;;;;;;;14.63;1.83;;;11.20;99.90;;;;;;4986754;28;20036;-84
2023/03/14 04:41:00;;;;;;;10.93;1.42;;;11.10;99.90;;;;;;5039367;28;20385;-85
2023/03/14 04:43:26;;;;;;;11.38;1.75;;;11.10;99.90;;;;;;5019162;28;20025;-84
2023/03/14 04:45:57;;;;;;;7.75;1.08;;;11.20;99.90;;;;;;5018071;28;20064;-84
2023/03/14 04:48:24;;;;;;;10.88;1.20;;;11.20;99.90;;;;;;5017998;28;20025;-84
2023/03/14 04:50:50;;;;;;;11.82;1.23;;;11.10;99.90;;;;;;5018057;28;20474;-84
2023/03/14 04:53:16;;;;;;;10.80;1.00;;;11.20;99.90;;;;;;5018176;28;20116;-83
2023/03/14 04:55:46;;;;;;;8.50;1.08;;;11.20;99.90;;;;;;5018167;28;20042;-83
2023/03/14 04:58:12;;;;;;;7.85;1.00;;;11.20;99.90;;;;;;5035621;28;20022;-83
2023/03/14 05:00:38;;;;;;;10.10;1.88;;;11.20;99.90;;;;;;5001734;28;20392;-84
2023/03/14 05:03:03;;;;;;;11.95;0.90;;;11.20;99.90;;;;;;5021576;28;20463;-83
2023/03/14 05:05:29;;;;;;;8.73;0.73;;;11.30;99.90;;;;;;5005591;28;20510;-83
2023/03/14 05:07:55;;;;;;;7.20;1.70;;;11.30;99.90;;;;;;5018527;28;20459;-83
2023/03/14 05:10:20;;;;;;;8.32;0.93;;;11.20;99.90;;;;;;5017539;28;20075;-82
2023/03/14 05:12:46;;;;;;;7.65;0.88;;;11.30;99.90;;;;;;5017175;28;20124;-83
2023/03/14 05:15:11;;;;;;;7.90;1.23;;;11.30;99.90;;;;;;4984986;28;20037;-82
2023/03/14 05:17:37;;;;;;;10.40;0.65;;;11.20;99.90;;;;;;4984944;28;20029;-83
2023/03/14 05:20:08;;;;;;;7.50;0.98;;;11.20;99.90;;;;;;5000720;28;20034;-83
2023/03/14 05:22:34;;;;;;;4.13;0.57;;;11.20;99.90;;;;;;5017847;28;20055;-82
2023/03/14 05:25:00;;;;;;;8.48;0.55;;;11.10;99.90;;;;;;5017266;28;20537;-83
2023/03/14 05:27:28;;;;;;;7.85;0.70;;;11.10;99.90;;;;;;5017659;28;20455;-82
2023/03/14 05:29:53;;;;;;;5.80;0.50;;;11.10;99.90;;;;;;5018033;28;20087;-83
2023/03/14 05:32:19;;;;;;;8.40;0.77;;;11.10;99.90;;;;;;5036010;28;20433;-84
2023/03/14 05:34:45;;;;;;;5.70;0.38;;;11.10;99.90;;;;;;5018818;28;20556;-83
2023/03/14 05:37:10;;;;;;;5.13;0.57;;;11.10;99.90;;;;;;5019035;28;20381;-83
2023/03/14 05:39:36;;;;;;;6.82;0.50;;;11.10;99.90;;;;;;5002982;28;20043;-83
2023/03/14 05:42:02;;;;;;;6.25;0.82;;;11.00;99.90;;;;;;5001795;28;20517;-84
2023/03/14 05:44:27;;;;;;;6.63;0.80;;;11.00;99.90;;;;;;5035313;28;20034;-85
2023/03/14 05:46:53;;;;;;;5.57;0.50;;;11.00;99.90;;;;;;5017446;28;20516;-85
2023/03/14 05:49:19;;;;;;;6.57;0.77;;;10.90;99.90;;;;;;4984337;28;20033;-83
2023/03/14 05:51:44;;;;;;;6.13;0.65;;;10.90;99.90;;;;;;5034954;28;20042;-82
2023/03/14 05:54:10;;;;;;;7.47;0.52;;;10.90;99.90;;;;;;5034416;28;20385;-83
2023/03/14 05:56:36;;;;;;;4.07;0.60;;;10.90;99.90;;;;;;5017108;28;20030;-84
2023/03/14 05:59:03;;;;;;;4.05;0.50;;;10.90;99.90;;;;;;5033938;28;20489;-84
2023/03/14 06:01:29;;;;;;;4.57;0.80;;;10.90;99.90;;;;;;5016439;28;20029;-85
2023/03/14 06:03:55;;;;;;;5.38;1.10;;;10.90;99.90;;;;;;5016606;28;20466;-81
2023/03/14 06:06:24;;;;;;;9.40;3.67;;;10.90;99.90;;;;;;5034118;28;20057;-84
2023/03/14 06:08:49;;;;;;;7.72;1.08;;;10.90;99.90;;;;;;4984693;28;20037;-80
2023/03/14 06:11:15;;;;;;;4.85;0.50;;;10.90;99.90;;;;;;4983960;28;20035;-85
2023/03/14 06:13:41;;;;;;;7.07;0.77;;;10.80;99.90;;;;;;5016484;28;20033;-85
2023/03/14 06:16:07;;;;;;;3.67;0.77;;;10.80;99.90;;;;;;4999782;28;20029;-86
2023/03/14 06:18:33;;;;;;;5.18;0.85;;;10.90;99.90;;;;;;4999906;28;20025;-85
2023/03/14 06:20:58;;;;;;;3.72;0.70;;;10.80;99.90;;;;;;4999618;28;20458;-85
2023/03/14 06:23:25;;;;;;;2.38;0.80;;;10.80;99.90;;;;;;5016260;28;20033;-85
2023/03/14 06:25:50;;;;;;;6.43;0.93;;;10.80;99.90;;;;;;5017106;28;20025;-85
2023/03/14 06:28:16;;;;;;;5.57;1.00;;;10.70;99.90;;;;;;5033807;28;20104;-85
2023/03/14 06:30:42;;;;;;;4.22;1.02;;;10.70;99.90;;;;;;5016507;28;20029;-85
2023/03/14 06:33:07;;;;;;;4.85;1.25;;;10.70;99.90;;;;;;4999750;28;20470;-84
2023/03/14 06:35:33;;;;;;;5.43;1.20;;;10.80;99.90;;;;;;5015860;28;20390;-85
2023/03/14 06:37:59;;;;;;;5.15;1.20;;;10.70;99.90;;;;;;5016769;28;20485;-85
2023/03/14 06:40:24;;;;;;;6.22;1.27;;;10.70;99.90;;;;;;5015597;28;20029;-82
2023/03/14 06:42:50;;;;;;;9.63;1.75;;;10.70;99.90;;;;;;5033921;28;20431;-83
2023/03/14 06:45:16;;;;;;;3.78;1.00;;;10.70;99.90;;;;;;5015923;28;20463;-84
2023/03/14 06:47:42;;;;;;;4.05;1.60;;;10.70;99.90;;;;;;4999189;28;20056;-83
2023/03/14 06:50:10;;;;;;;3.38;1.33;;;10.70;99.90;;;;;;5033247;28;20030;-84
2023/03/14 06:52:36;;;;;;;3.53;1.23;;;10.60;99.90;;;;;;4999566;28;20069;-83
2023/03/14 06:55:02;;;;;;;6.70;1.70;;;10.60;99.90;;;;;;5015330;28;20030;-83
2023/03/14 06:57:28;;;;;;;6.18;1.55;;;10.70;99.90;;;;;;5015856;28;20538;-83
2023/03/14 06:59:54;;;;;;;4.30;1.83;;;10.70;99.90;;;;;;5016244;28;20128;-83
2023/03/14 07:02:19;;;;;;;5.28;2.13;;;10.70;99.90;;;;;;5015561;28;20041;-83
2023/03/14 07:04:45;;;;;;;10.82;2.30;;;10.70;99.90;;;;;;5033977;28;20041;-83
2023/03/14 07:07:10;;;;;;;6.15;2.17;;;10.70;99.90;;;;;;4996054;28;20057;-82
2023/03/14 07:09:36;;;;;;;6.65;2.45;;;10.70;99.90;;;;;;4996142;28;20033;-84
2023/03/14 07:12:04;;;;;;;6.25;2.08;;;10.80;99.90;;;;;;5012551;28;20437;-80
2023/03/14 07:14:29;;;;;;;5.85;1.92;;;10.80;99.90;;;;;;5012627;28;20125;-79
2023/03/14 07:16:55;;;;;;;5.80;2.20;;;10.80;99.90;;;;;;5017719;28;20505;-78
2023/03/14 07:19:21;;;;;;;6.30;2.55;;;10.80;99.90;;;;;;5012548;28;20030;-80
2023/03/14 07:21:46;;;;;;;6.25;2.78;;;10.80;99.90;;;;;;4996618;28;20065;-80
2023/03/14 07:24:12;;;;;;;6.20;2.55;;;10.80;99.90;;;;;;5018671;28;20034;-78
2023/03/14 07:26:38;;;;;;;6.75;2.90;;;10.80;99.90;;;;;;5019907;28;20117;-80
2023/03/14 07:29:04;;;;;;;6.60;2.50;;;10.80;99.90;;;;;;5018019;28;20113;-81
2023/03/14 07:31:30;;;;;;;4.57;1.92;;;10.70;99.90;;;;;;5001029;28;20096;-80
2023/03/14 07:33:55;;;;;;;4.38;1.63;;;10.70;99.90;;;;;;5017831;28;20512;-80
2023/03/14 07:36:21;;;;;;;3.85;1.80;;;10.70;99.90;;;;;;5017908;28;20032;-80
2023/03/14 07:38:47;;;;;;;7.43;2.00;;;10.70;99.90;;;;;;5016756;28;20359;-81
2023/03/14 07:41:13;;;;;;;4.95;1.70;;;10.80;99.90;;;;;;5018459;28;20379;-79
2023/03/14 07:43:39;;;;;;;3.17;1.20;;;10.80;99.90;;;;;;5017780;28;20084;-79
2023/03/14 07:46:05;;;;;;;3.38;1.00;;;10.80;99.90;;;;;;5016273;28;20465;-80
2023/03/14 07:48:31;;;;;;;2.30;0.60;;;10.80;99.90;;;;;;5017038;28;20034;-81
2023/03/14 07:50:57;;;;;;;4.38;0.50;;;10.70;99.90;;;;;;5016265;28;20037;-78
2023/03/14 07:53:24;;;;;;;1.73;0.20;;;10.60;99.90;;;;;;5017416;28;20375;-78
2023/03/14 07:55:52;;;;;;;2.33;0.40;;;10.50;99.90;;;;;;5017222;28;20029;-79
2023/03/14 07:58:17;;;;;;;3.63;0.28;;;10.40;99.90;;;;;;5016143;28;20038;-79
2023/03/14 08:00:44;;;;;;;2.63;0.30;;;10.40;99.90;;;;;;5015119;28;20022;-78
2023/03/14 08:03:09;;;;;;;2.38;0.35;;;10.40;99.90;;;;;;4983215;28;20066;-80
2023/03/14 08:05:36;;;;;;;1.42;0.10;;;10.40;99.90;;;;;;5018586;28;20494;-79
2023/03/14 08:08:03;;;;;;;1.58;0.20;;;10.30;99.90;;;;;;5046270;28;20053;-79
2023/03/14 08:10:29;;;;;;;1.45;0.10;;;10.30;99.90;;;;;;5036718;28;20382;-79
2023/03/14 08:12:56;;;;;;;3.90;0.20;;;10.20;99.90;;;;;;5018568;28;20033;-79
2023/03/14 08:15:23;;;;;;;2.22;0.47;;;10.20;99.90;;;;;;5018651;28;20025;-79
2023/03/14 08:17:50;;;;;;;2.08;0.10;;;10.30;99.90;;;;;;5036676;28;20022;-79
2023/03/14 08:20:20;;;;;;;0.93;0.10;;;10.20;99.90;;;;;;5036092;28;20025;-80
2023/03/14 08:22:46;;;;;;;3.38;0.80;;;10.30;99.90;;;;;;5036285;28;20030;-79
2023/03/14 08:25:12;;;;;;;1.13;0.10;;;10.30;99.90;;;;;;5018759;28;20438;-79
2023/03/14 08:27:38;;;;;;;0.93;0.20;;;10.40;99.90;;;;;;5035867;28;20466;-78
2023/03/14 08:30:06;;;;;;;1.38;0.17;;;10.40;99.90;;;;;;5036003;28;20029;-78
2023/03/14 08:32:31;;;;;;;1.00;0.20;;;10.30;99.90;;;;;;5036712;28;20040;-78
2023/03/14 08:34:57;;;;;;;1.70;0.10;;;10.30;99.90;;;;;;5017297;28;20025;-78
2023/03/14 08:37:24;;;;;;;0.55;0.10;;;10.40;99.90;;;;;;5001841;28;20030;-78
2023/03/14 08:39:50;;;;;;;2.15;0.30;;;10.40;99.90;;;;;;5018097;28;20072;-78
2023/03/14 08:42:16;;;;;;;3.58;0.45;;;10.30;99.90;;;;;;5018079;28;20107;-78
2023/03/14 08:44:42;;;;;;;2.78;0.15;;;10.30;99.90;;;;;;5018626;28;20040;-78
2023/03/14 08:47:08;;;;;;;5.28;0.40;;;10.30;99.90;;;;;;5036276;28;20029;-81
2023/03/14 08:49:33;;;;;;;2.05;0.10;;;10.30;99.90;;;;;;5004885;28;20080;-81
2023/03/14 08:52:02;;;;;;;4.60;0.57;;;10.20;99.90;;;;;;5041186;28;20038;-82
2023/03/14 08:54:27;;;;;;;5.05;0.30;;;10.10;99.90;;;;;;5023217;28;20025;-82
2023/03/14 08:56:53;;;;;;;5.55;0.40;;;10.00;99.90;;;;;;5023217;28;20474;-82
2023/03/14 08:59:19;;;;;;;6.03;0.30;;;10.00;99.90;;;;;;5006140;28;20116;-81
2023/03/14 09:01:44;;;;;;;8.20;0.50;;;9.90;99.90;;;;;;4994121;28;20474;-82
2023/03/14 09:04:10;;;;;;;3.13;0.20;;;10.00;99.90;;;;;;4992858;28;20045;-81
2023/03/14 09:06:36;;;;;;;7.07;0.55;;;9.90;99.90;;;;;;5040495;28;20504;-82
2023/03/14 09:09:02;;;;;;;3.80;0.20;;;9.90;99.90;;;;;;5020928;28;20021;-81
2023/03/14 09:11:27;;;;;;;4.88;0.20;;;9.90;99.90;;;;;;5002172;28;20044;-81
2023/03/14 09:13:53;;;;;;;3.85;0.40;;;10.00;99.90;;;;;;5003082;28;20377;-82
2023/03/14 09:16:19;;;;;;;4.32;0.20;;;10.10;99.90;;;;;;5017634;28;20532;-81
2023/03/14 09:18:45;;;;;;;2.47;0.10;;;9.90;99.90;;;;;;5017586;28;20060;-82
2023/03/14 09:21:10;;;;;;;5.78;0.30;;;9.80;99.90;;;;;;5035854;28;20092;-80
2023/03/14 09:23:36;;;;;;;4.28;0.10;;;9.60;99.90;;;;;;5035113;28;20065;-79
2023/03/14 09:26:02;;;;;;;1.95;0.28;;;9.60;99.90;;;;;;5017529;28;20108;-80
2023/03/14 09:28:28;;;;;;;4.18;0.20;;;9.60;99.90;;;;;;5000942;28;20037;-80
2023/03/14 09:30:54;;;;;;;4.78;0.45;;;9.50;99.90;;;;;;5034817;28;20034;-79
2023/03/14 09:33:20;;;;;;;2.65;0.10;;;9.50;99.90;;;;;;5017141;28;20456;-79
2023/03/14 09:35:46;;;;;;;2.75;0.10;;;9.40;99.90;;;;;;5034837;28;20025;-80
2023/03/14 09:38:12;;;;;;;2.65;0.10;;;9.30;99.90;;;;;;5035399;28;20087;-79
2023/03/14 09:40:38;;;;;;;2.30;0.10;;;9.40;99.90;;;;;;5019865;28;20134;-84
2023/03/14 09:43:05;;;;;;;2.03;0.10;;;9.50;99.90;;;;;;5017951;28;20465;-83
2023/03/14 09:45:40;;;;;;;3.35;0.10;;;9.50;99.90;;;;;;5017139;28;20025;-84
2023/03/14 09:48:19;;;;;;;1.98;0.10;;;9.60;99.90;;;;;;5035178;28;20028;-83
2023/03/14 09:50:53;;;;;;;3.92;0.55;;;9.70;99.90;;;;;;5035901;28;20458;-82
2023/03/14 09:53:25;;;;;;;1.75;0.10;;;9.70;99.90;;;;;;5017430;28;20077;-84
2023/03/14 09:55:53;;;;;;;4.72;0.30;;;9.80;99.90;;;;;;5017915;28;20061;-83
2023/03/14 09:58:21;;;;;;;3.47;0.30;;;9.80;99.90;;;;;;5000743;28;20033;-84
2023/03/14 10:00:53;;;;;;;5.53;0.43;;;9.70;99.90;;;;;;5034822;28;20021;-83
2023/03/14 10:03:24;;;;;;;5.00;0.25;;;9.50;99.90;;;;;;5017994;28;20077;-84
2023/03/14 10:06:00;;;;;;;5.38;0.40;;;9.50;99.90;;;;;;5034786;28;20029;-82
2023/03/14 10:08:26;;;;;;;5.43;0.40;;;9.60;99.90;;;;;;4998379;28;20104;-83
2023/03/14 10:10:53;;;;;;;6.38;0.55;;;9.70;99.90;;;;;;4980835;28;20148;-83
2023/03/14 10:13:22;;;;;;;4.40;0.70;;;9.80;99.90;;;;;;4997018;28;20025;-84
2023/03/14 10:15:58;;;;;;;10.15;0.60;;;9.80;99.90;;;;;;4996695;28;20022;-83
2023/03/14 10:18:24;;;;;;;3.80;0.30;;;9.90;99.90;;;;;;5014777;28;20022;-83
2023/03/14 10:21:27;;;;;;;6.38;0.68;;;10.00;99.90;;;;;;4980583;28;20037;-83
2023/03/14 10:23:53;;;;;;;6.60;0.50;;;9.90;99.90;;;;;;5011863;28;20050;-83
2023/03/14 10:26:26;;;;;;;8.90;0.80;;;10.00;99.90;;;;;;5014711;28;20033;-84
2023/03/14 10:28:53;;;;;;;;;;;10.00;99.90;;;;;;5014892;28;20105;-83
2023/03/14 10:31:18;;;;;;;7.50;0.60;;;10.00;99.90;;;;;;5013987;28;19959;-83
2023/03/14 10:34:02;;;;;;;13.63;1.42;;;10.00;99.90;;;;;;4980282;28;20471;-82
2023/03/14 10:36:34;;;;;;;14.52;1.52;;;10.10;99.90;;;;;;4996476;28;20025;-83
2023/03/14 10:39:23;;;;;;;14.02;1.17;;;10.30;99.90;;;;;;5014887;28;20173;-83
2023/03/14 10:41:52;;;;;;;10.77;1.40;;;10.20;99.90;;;;;;5014527;28;20033;-83
2023/03/14 10:44:22;;;;;;;12.02;1.67;;;10.20;99.90;;;;;;4996422;28;20057;-83
2023/03/14 10:47:00;;;;;;;14.63;1.60;;;10.20;99.90;;;;;;5016320;28;20022;-83
2023/03/14 10:49:35;;;;;;;13.68;1.25;;;10.20;99.90;;;;;;5014107;28;20105;-84
2023/03/14 10:52:25;;;;;;;14.48;1.30;;;10.20;99.90;;;;;;5014363;28;20041;-84
2023/03/14 10:54:57;;;;;;;15.18;1.48;;;10.20;99.80;;;;;;4996588;28;20492;-84
2023/03/14 10:57:23;;;;;;;12.07;1.75;;;10.20;99.90;;;;;;5013554;28;20022;-83
2023/03/14 10:59:50;;;;;;;16.00;1.52;;;10.10;99.90;;;;;;4996994;28;20164;-84
2023/03/14 11:02:50;;;;;;;10.00;0.98;;;10.10;99.70;;;;;;5013717;28;20034;-83
2023/03/14 11:05:39;;;;;;;9.90;1.45;;;9.80;99.90;;;;;;5013920;28;20030;-83
2023/03/14 11:08:26;;;;;;;14.73;2.30;;;9.70;99.90;;;;;;5022717;28;20057;-83
2023/03/14 11:11:07;;;;;;;14.30;1.52;;;9.70;99.90;;;;;;5015635;28;20025;-83
2023/03/14 11:13:43;;;;;;;11.63;1.60;;;9.50;99.90;;;;;;5034102;28;20124;-83
2023/03/14 11:16:19;;;;;;;12.27;2.20;;;9.30;99.90;;;;;;5033222;28;20021;-83
2023/03/14 11:19:01;;;;;;;11.80;0.98;;;9.60;99.90;;;;;;5033494;28;20036;-82
2023/03/14 11:21:53;;;;;;;16.88;1.73;;;9.80;99.90;;;;;;5033785;28;20029;-83
2023/03/14 11:24:44;;;;;;;15.25;1.67;;;10.10;99.90;;;;;;5016080;28;20033;-83
2023/03/14 11:27:30;;;;;;;17.27;1.45;;;10.20;99.90;;;;;;5033236;28;20034;-83
2023/03/14 11:30:15;;;;;;;19.70;2.05;;;10.20;99.90;;;;;;5032993;28;20022;-83
2023/03/14 11:32:44;;;;;;;11.27;1.60;;;10.00;99.90;;;;;;5033343;28;20029;-83
2023/03/14 11:35:53;;;;;;;14.65;1.40;;;9.70;99.90;;;;;;5033613;28;20124;-83
2023/03/14 11:38:27;;;;;;;17.30;2.20;;;9.80;99.90;;;;;;4956240;28;20142;-83
2023/03/14 11:40:55;;;;;;;23.23;2.42;;;9.90;99.90;;;;;;5006947;28;20134;-83
2023/03/14 11:43:35;;;;;;;18.80;2.28;;;9.90;99.90;;;;;;5015466;28;20103;-82
2023/03/14 11:46:08;;;;;;;24.70;2.38;;;9.90;99.90;;;;;;5015006;28;20033;-83
2023/03/14 11:48:49;;;;;;;18.70;2.65;;;10.10;99.90;;;;;;5033283;28;20030;-84
2023/03/14 11:51:27;;;;;;;23.10;1.63;;;10.20;99.80;;;;;;5016000;28;20068;-84
2023/03/14 11:54:12;;;;;;;15.75;1.95;;;10.30;99.30;;;;;;5032818;28;20021;-84
2023/03/14 11:56:52;;;;;;;23.65;2.25;;;10.60;99.20;;;;;;5033094;28;20374;-84
2023/03/14 11:59:24;;;;;;;15.88;2.00;;;10.80;97.90;;;;;;5032976;28;20021;-81
2023/03/14 12:02:27;;;;;;;14.37;2.20;;;11.10;97.50;;;;;;5032946;28;20033;-84
2023/03/14 12:05:17;;;;;;;13.52;1.60;;;11.30;96.80;;;;;;5015541;28;20026;-82
2023/03/14 12:08:07;;;;;;;18.80;1.92;;;11.60;96.00;;;;;;5012070;28;20046;-84
2023/03/14 12:10:44;;;;;;;11.25;1.85;;;11.80;93.50;;;;;;5015956;28;20104;-83
2023/03/14 12:13:12;;;;;;;12.10;1.40;;;11.90;90.90;;;;;;5015481;28;20077;-86
2023/03/14 12:15:50;;;;;;;18.02;1.80;;;12.10;90.50;;;;;;5015459;28;20026;-85
2023/03/14 12:18:32;;;;;;;15.35;2.15;;;12.20;89.10;;;;;;5016037;28;20471;-78
2023/03/14 12:21:01;;;;;;;9.98;1.08;;;12.30;87.00;;;;;;5015571;28;20125;-78
2023/03/14 12:23:33;;;;;;;11.07;1.75;;;12.50;87.30;;;;;;5015073;28;20033;-79
2023/03/14 12:26:11;;;;;;;10.13;1.48;;;12.60;80.60;;;;;;5016185;28;20497;-78
2023/03/14 12:28:38;;;;;;;7.55;1.02;;;12.50;76.30;;;;;;5016200;28;20026;-79
2023/03/14 12:31:32;;;;;;;10.65;1.00;;;12.70;79.20;;;;;;5014878;28;20030;-78
2023/03/14 12:34:10;;;;;;;12.05;1.25;;;12.90;77.50;;;;;;5013749;28;20034;-77
2023/03/14 12:36:51;;;;;;;7.13;1.33;;;12.90;73.40;;;;;;5015164;28;20037;-78
2023/03/14 12:39:42;;;;;;;9.50;0.95;;;13.00;73.40;;;;;;5016453;28;20153;-77
2023/03/14 12:42:28;;;;;;;9.20;1.23;;;12.80;70.30;;;;;;5016212;28;20057;-77
2023/03/14 12:45:24;;;;;;;7.32;1.42;;;12.90;70.20;;;;;;5015704;28;20416;-74
2023/03/14 12:48:21;;;;;;;10.98;1.95;;;13.00;76.10;;;;;;5015829;28;20112;-74
2023/03/14 12:50:55;;;;;;;23.30;9.95;;;13.40;70.50;;;;;;5015824;28;20029;-75
2023/03/14 12:53:59;;;;;;;28.45;13.20;;;13.40;67.30;;;;;;5015844;28;20022;-75
2023/03/14 12:56:32;;;;;;;;;;;13.60;70.70;;;;;;5016304;28;20026;-73